createdAt,value
2023-08-02T00:04:21.917Z,3.50
2023-08-02T00:09:24.109Z,3.60
2023-08-02T00:14:26.927Z,4.53
2023-08-02T00:19:29.037Z,3.60
2023-08-02T00:24:31.147Z,3.65
2023-08-02T00:29:33.223Z,4.32
2023-08-02T00:34:35.466Z,4.78
2023-08-02T00:39:40.777Z,4.47
2023-08-02T00:44:43.084Z,4.57
2023-08-02T00:49:46.859Z,4.28
2023-08-02T00:54:49.905Z,4.50
2023-08-02T00:59:52.145Z,4.28
2023-08-02T01:04:54.732Z,5.13
2023-08-02T01:10:10.749Z,4.85
2023-08-02T01:15:16.169Z,4.18
2023-08-02T01:20:18.334Z,4.85
2023-08-02T01:25:20.808Z,4.78
2023-08-02T01:30:26.790Z,4.70
2023-08-02T01:35:29.787Z,4.50
2023-08-02T01:40:32.124Z,4.50
2023-08-02T01:45:34.275Z,4.43
2023-08-02T01:50:36.454Z,4.70
2023-08-02T01:55:38.784Z,4.10
2023-08-02T02:00:41.055Z,5.18
2023-08-02T02:05:53.195Z,4.40
2023-08-02T02:10:55.849Z,4.00
2023-08-02T02:15:58.047Z,3.70
2023-08-02T02:21:00.489Z,3.60
2023-08-02T02:26:02.726Z,3.63
2023-08-02T02:31:04.902Z,4.32
2023-08-02T02:36:07.437Z,3.80
2023-08-02T02:41:09.588Z,4.05
2023-08-02T02:46:11.966Z,3.95
2023-08-02T02:51:14.160Z,3.60
2023-08-02T02:56:16.249Z,3.83
2023-08-02T03:01:18.472Z,3.63
2023-08-02T03:06:20.750Z,3.70
2023-08-02T03:11:22.932Z,3.58
2023-08-02T03:16:25.137Z,3.30
2023-08-02T03:21:27.455Z,4.18
2023-08-02T03:26:29.752Z,3.47
2023-08-02T03:31:32.610Z,3.60
2023-08-02T03:36:34.857Z,3.70
2023-08-02T03:41:37.839Z,3.60
2023-08-02T03:46:40.403Z,3.75
2023-08-02T03:51:43.169Z,4.13
2023-08-02T03:56:46.059Z,3.80
2023-08-02T04:01:48.567Z,4.80
2023-08-02T04:06:50.778Z,4.20
2023-08-02T04:11:53.173Z,4.35
2023-08-02T04:16:55.453Z,4.00
2023-08-02T04:21:57.770Z,4.40
2023-08-02T04:27:00.361Z,4.53
2023-08-02T04:32:02.647Z,4.47
2023-08-02T04:37:05.052Z,4.68
2023-08-02T04:42:07.212Z,4.72
2023-08-02T04:47:09.400Z,4.57
2023-08-02T04:52:11.450Z,4.70
2023-08-02T04:57:13.887Z,4.70
2023-08-02T05:02:16.522Z,4.70
2023-08-02T05:07:18.623Z,5.10
2023-08-02T05:12:20.954Z,5.43
2023-08-02T05:17:29.017Z,5.45
2023-08-02T05:22:32.447Z,6.32
2023-08-02T05:27:34.752Z,6.00
2023-08-02T05:32:36.846Z,5.88
2023-08-02T05:37:39.110Z,5.97
2023-08-02T05:42:41.229Z,5.93
2023-08-02T05:47:43.366Z,5.43
2023-08-02T05:52:45.595Z,5.35
2023-08-02T05:57:49.605Z,5.43
2023-08-02T06:02:51.809Z,4.90
2023-08-02T06:07:53.983Z,5.30
2023-08-02T06:12:56.288Z,5.80
2023-08-02T06:17:58.535Z,4.95
2023-08-02T06:23:00.663Z,4.47
2023-08-02T06:28:02.905Z,3.65
2023-08-02T06:33:05.127Z,3.70
2023-08-02T06:38:07.373Z,3.25
2023-08-02T06:43:09.599Z,2.80
2023-08-02T06:48:11.812Z,2.65
2023-08-02T06:53:14.070Z,2.72
2023-08-02T06:58:16.450Z,2.53
2023-08-02T07:03:18.840Z,2.28
2023-08-02T07:08:21.056Z,2.30
2023-08-02T07:13:23.226Z,2.10
2023-08-02T07:18:25.479Z,1.88
2023-08-02T07:23:27.723Z,2.50
2023-08-02T07:28:30.202Z,2.55
2023-08-02T07:33:32.403Z,2.30
2023-08-02T07:38:34.755Z,1.95
2023-08-02T07:43:37.254Z,1.90
2023-08-02T07:48:39.512Z,2.05
2023-08-02T07:53:42.032Z,1.50
2023-08-02T07:58:44.467Z,1.48
2023-08-02T08:03:46.874Z,1.35
2023-08-02T08:08:49.585Z,1.20
2023-08-02T08:13:53.377Z,1.00
2023-08-02T08:18:55.805Z,1.20
2023-08-02T08:23:58.180Z,1.20
2023-08-02T08:29:00.525Z,1.25
2023-08-02T08:34:03.664Z,1.35
2023-08-02T08:39:06.260Z,1.60
2023-08-02T08:44:08.686Z,1.75
2023-08-02T08:49:10.895Z,2.25
2023-08-02T08:54:19.054Z,2.83
2023-08-02T08:59:21.675Z,2.90
2023-08-02T09:04:24.696Z,3.10
2023-08-02T09:09:26.917Z,3.58
2023-08-02T09:14:29.519Z,3.45
2023-08-02T09:19:34.850Z,3.65
2023-08-02T09:24:39.124Z,3.55
2023-08-02T09:29:52.139Z,3.50
2023-08-02T09:34:59.279Z,3.45
2023-08-02T09:40:03.001Z,3.05
2023-08-02T09:45:07.475Z,2.20
2023-08-02T09:50:11.689Z,2.00
2023-08-02T09:55:14.062Z,1.70
2023-08-02T10:00:18.299Z,1.55
2023-08-02T10:05:20.654Z,1.58
2023-08-02T10:10:27.113Z,1.65
2023-08-02T10:15:30.076Z,1.90
2023-08-02T10:20:32.860Z,1.90
2023-08-02T10:25:36.789Z,1.80
2023-08-02T10:30:40.028Z,1.60
2023-08-02T10:36:02.375Z,1.95
2023-08-02T10:41:14.296Z,1.85
2023-08-02T10:46:20.195Z,1.63
2023-08-02T10:51:28.450Z,2.00
2023-08-02T10:56:30.671Z,2.00
2023-08-02T11:01:32.986Z,2.40
2023-08-02T11:06:36.646Z,1.73
2023-08-02T11:11:39.425Z,1.58
2023-08-02T11:16:54.476Z,1.30
2023-08-02T11:22:00.824Z,1.48
2023-08-02T11:27:03.676Z,1.73
2023-08-02T11:32:07.086Z,1.52
2023-08-02T11:37:09.894Z,1.60
2023-08-02T11:42:12.129Z,1.50
2023-08-02T11:47:14.551Z,1.48
2023-08-02T11:52:34.419Z,1.52
2023-08-02T11:57:36.981Z,2.00
2023-08-02T12:02:39.468Z,1.60
2023-08-02T12:07:41.696Z,1.30
2023-08-02T12:12:43.911Z,1.73
2023-08-02T12:17:46.193Z,1.70
2023-08-02T12:22:49.971Z,1.60
2023-08-02T12:28:08.734Z,1.10
2023-08-02T12:33:11.036Z,1.23
2023-08-02T12:38:13.292Z,1.25
2023-08-02T12:43:16.507Z,1.30
2023-08-02T12:48:21.322Z,1.05
2023-08-02T12:53:23.763Z,1.05
2023-08-02T12:58:26.584Z,1.02
2023-08-02T13:03:28.870Z,0.95
2023-08-02T13:08:31.259Z,0.80
2023-08-02T13:13:33.464Z,1.20
2023-08-02T13:18:35.722Z,1.00
2023-08-02T13:23:37.955Z,0.90
2023-08-02T13:28:42.890Z,0.90
2023-08-02T13:33:47.276Z,0.82
2023-08-02T13:38:49.572Z,0.98
2023-08-02T13:43:51.999Z,0.68
2023-08-02T13:48:54.140Z,0.60
2023-08-02T13:53:56.509Z,1.10
2023-08-02T13:58:58.949Z,0.70
2023-08-02T14:04:01.381Z,0.70
2023-08-02T14:09:04.445Z,0.80
2023-08-02T14:14:09.385Z,0.90
2023-08-02T14:19:11.640Z,1.05
2023-08-02T14:24:14.018Z,1.27
2023-08-02T14:29:16.377Z,0.70
2023-08-02T14:34:23.230Z,0.60
2023-08-02T14:39:26.270Z,0.75
2023-08-02T14:44:28.646Z,0.82
2023-08-02T14:49:30.888Z,0.75
2023-08-02T14:54:33.255Z,0.90
2023-08-02T14:59:35.504Z,1.55
2023-08-02T15:04:37.967Z,1.23
2023-08-02T15:09:40.375Z,1.35
2023-08-02T15:14:42.605Z,1.20
2023-08-02T15:19:45.051Z,1.48
2023-08-02T15:24:47.224Z,1.05
2023-08-02T15:29:49.774Z,0.95
2023-08-02T15:34:51.988Z,1.10
2023-08-02T15:39:54.272Z,1.92
2023-08-02T15:44:56.730Z,0.98
2023-08-02T15:49:59.154Z,1.35
2023-08-02T15:55:01.429Z,1.10
2023-08-02T16:00:04.237Z,0.80
2023-08-02T16:05:14.786Z,0.82
2023-08-02T16:10:17.363Z,1.50
2023-08-02T16:15:19.618Z,1.10
2023-08-02T16:20:21.754Z,1.00
2023-08-02T16:25:26.610Z,0.93
2023-08-02T16:30:28.828Z,0.90
2023-08-02T16:35:31.264Z,1.60
2023-08-02T16:40:33.437Z,1.00
2023-08-02T16:45:35.633Z,1.00
2023-08-02T16:50:37.880Z,1.08
2023-08-02T16:55:39.994Z,1.10
2023-08-02T17:00:42.371Z,1.25
2023-08-02T17:05:44.749Z,1.42
2023-08-02T17:10:46.890Z,1.35
2023-08-02T17:15:49.056Z,0.90
2023-08-02T17:20:51.202Z,0.93
2023-08-02T17:25:53.289Z,0.70
2023-08-02T17:30:55.497Z,0.80
2023-08-02T17:35:57.592Z,0.70
2023-08-02T17:40:59.980Z,0.70
2023-08-02T17:46:02.364Z,0.70
2023-08-02T17:51:04.715Z,0.77
2023-08-02T17:56:07.080Z,0.68
2023-08-02T18:01:16.693Z,0.90
2023-08-02T18:06:20.745Z,1.20
2023-08-02T18:11:23.074Z,0.95
2023-08-02T18:16:25.516Z,0.85
2023-08-02T18:21:27.770Z,0.88
2023-08-02T18:26:29.984Z,0.70
2023-08-02T18:31:32.151Z,0.73
2023-08-02T18:36:34.444Z,1.02
2023-08-02T18:41:36.869Z,0.88
2023-08-02T18:46:39.262Z,0.88
2023-08-02T18:51:42.008Z,1.17
2023-08-02T18:56:44.524Z,1.10
2023-08-02T19:01:47.173Z,1.08
2023-08-02T19:06:49.790Z,0.95
2023-08-02T19:11:52.187Z,1.30
2023-08-02T19:16:57.947Z,1.13
2023-08-02T19:22:09.579Z,0.93
2023-08-02T19:27:13.254Z,1.23
2023-08-02T19:32:16.643Z,1.10
2023-08-02T19:37:26.522Z,1.20
2023-08-02T19:42:28.657Z,1.20
2023-08-02T19:47:30.815Z,1.13
2023-08-02T19:52:33.532Z,1.27
2023-08-02T19:57:46.443Z,1.33
2023-08-02T20:02:48.584Z,1.08
2023-08-02T20:07:50.757Z,0.82
2023-08-02T20:12:53.026Z,1.00
2023-08-02T20:17:56.282Z,1.23
2023-08-02T20:22:58.496Z,1.10
2023-08-02T20:28:00.624Z,1.15
2023-08-02T20:33:06.835Z,1.00
2023-08-02T20:38:13.729Z,1.23
2023-08-02T20:43:15.940Z,1.05
2023-08-02T20:48:18.298Z,1.10
2023-08-02T20:53:21.066Z,1.30
2023-08-02T20:58:28.588Z,1.45
2023-08-02T21:03:31.235Z,1.15
2023-08-02T21:08:34.291Z,1.38
2023-08-02T21:13:37.395Z,1.60
2023-08-02T21:18:41.884Z,1.27
2023-08-02T21:23:45.173Z,1.20
2023-08-02T21:28:48.544Z,1.17
2023-08-02T21:33:57.212Z,1.00
2023-08-02T21:38:59.711Z,1.17
2023-08-02T21:44:02.086Z,0.82
2023-08-02T21:49:04.545Z,1.00
2023-08-02T21:54:06.890Z,1.10
2023-08-02T21:59:09.750Z,1.00
2023-08-02T22:04:12.083Z,1.05
2023-08-02T22:09:14.676Z,1.40
2023-08-02T22:14:18.747Z,1.50
2023-08-02T22:19:21.021Z,1.20
2023-08-02T22:24:23.261Z,1.10
2023-08-02T22:29:25.590Z,1.00
2023-08-02T22:34:28.429Z,1.00
2023-08-02T22:39:30.769Z,1.42
2023-08-02T22:44:33.150Z,1.10
2023-08-02T22:50:43.433Z,0.70
2023-08-02T22:54:58.932Z,1.13
2023-08-02T23:00:01.684Z,1.10
2023-08-02T23:05:32.892Z,1.00
2023-08-02T23:10:40.783Z,1.00
2023-08-02T23:15:43.934Z,1.10
2023-08-02T23:20:48.099Z,0.90
2023-08-02T23:25:57.715Z,1.50
2023-08-02T23:31:01.728Z,1.67
2023-08-02T23:36:04.255Z,1.52
2023-08-02T23:41:06.498Z,1.77
2023-08-02T23:46:08.744Z,2.53
2023-08-02T23:51:10.999Z,2.20
2023-08-02T23:56:13.196Z,3.17
